Time;durP1;ratioP1;P1;durP2;ratioP2;P2;SDS_P1;SDS_P2;PMS_P1;PMS_P2;Temp;Humidity;BMP_temperature;BMP_pressure;BME280_temperature;BME280_humidity;BME280_pressure;Samples;Min_cycle;Max_cycle;Signal;HPM_P1;HPM_P2
2021/12/31 00:01:37;;;;;;;3.42;0.30;;;;;;;15.90;82.88;101064.09;7392790;19;20015;-68
2021/12/31 00:04:04;;;;;;;7.38;0.80;;;;;;;15.91;82.90;101060.44;7389710;19;20011;-66
2021/12/31 00:06:32;;;;;;;4.93;0.50;;;;;;;15.93;82.68;101057.63;7392264;19;20077;-66
2021/12/31 00:08:59;;;;;;;7.93;0.50;;;;;;;15.91;82.70;101057.78;7390360;19;20010;-66
2021/12/31 00:11:27;;;;;;;9.10;0.50;;;;;;;15.93;82.42;101052.31;7389174;19;20007;-66
2021/12/31 00:13:54;;;;;;;3.08;0.40;;;;;;;15.90;81.95;101053.47;7390081;19;20006;-66
2021/12/31 00:16:21;;;;;;;4.78;0.50;;;;;;;15.88;82.61;101062.66;7389850;19;20043;-65
2021/12/31 00:18:48;;;;;;;5.85;0.60;;;;;;;15.84;82.32;101056.88;7388469;19;20003;-66
2021/12/31 00:21:16;;;;;;;4.80;0.82;;;;;;;15.88;82.57;101062.66;7391424;19;20063;-67
2021/12/31 00:23:45;;;;;;;5.53;0.40;;;;;;;15.86;81.92;101059.34;7389704;19;20002;-67
2021/12/31 00:26:12;;;;;;;3.58;0.70;;;;;;;15.89;83.24;101065.13;7391150;19;20011;-66
2021/12/31 00:28:39;;;;;;;7.53;0.40;;;;;;;15.91;83.38;101055.13;7390232;19;20555;-68
2021/12/31 00:31:07;;;;;;;4.25;0.35;;;;;;;15.90;82.47;101055.34;7391268;19;20035;-68
2021/12/31 00:33:34;;;;;;;3.13;0.30;;;;;;;15.87;81.84;101051.22;7390560;19;20007;-66
2021/12/31 00:36:02;;;;;;;2.17;0.50;;;;;;;15.87;81.56;101045.06;7390923;19;20016;-66
2021/12/31 00:38:29;;;;;;;4.18;0.70;;;;;;;15.88;81.94;101044.91;7389967;19;20353;-66
2021/12/31 00:40:56;;;;;;;3.38;0.30;;;;;;;15.88;81.93;101044.06;7393152;19;20493;-67
2021/12/31 00:43:23;;;;;;;5.25;0.32;;;;;;;15.87;82.30;101040.59;7391713;19;20452;-66
2021/12/31 00:45:50;;;;;;;4.25;0.30;;;;;;;15.83;81.86;101034.84;7389072;19;20487;-66
2021/12/31 00:48:18;;;;;;;3.35;0.30;;;;;;;15.80;82.04;101040.50;7391628;19;20018;-67
2021/12/31 00:50:45;;;;;;;5.13;0.30;;;;;;;15.73;81.54;101036.94;7390852;19;20003;-66
2021/12/31 00:53:13;;;;;;;4.95;0.30;;;;;;;15.69;81.78;101038.31;7387828;19;20003;-66
2021/12/31 00:55:40;;;;;;;4.18;0.40;;;;;;;15.66;81.80;101035.16;7389443;19;20023;-68
2021/12/31 00:58:07;;;;;;;4.72;0.50;;;;;;;15.64;82.28;101045.16;7389436;19;20019;-67
2021/12/31 01:00:35;;;;;;;4.03;0.30;;;;;;;15.64;82.62;101045.97;7389631;19;20440;-67
2021/12/31 01:03:03;;;;;;;6.65;0.40;;;;;;;15.60;81.97;101035.88;7389363;19;20013;-67
2021/12/31 01:05:30;;;;;;;2.17;0.30;;;;;;;15.61;82.41;101024.28;7391958;19;20279;-66
2021/12/31 01:07:57;;;;;;;3.42;0.40;;;;;;;15.62;82.62;101031.22;7391255;19;20014;-67
2021/12/31 01:10:27;;;;;;;5.38;0.50;;;;;;;15.55;82.18;101039.06;7389821;19;20487;-67
2021/12/31 01:12:54;;;;;;;2.97;0.40;;;;;;;15.55;82.33;101044.38;7386006;19;20338;-68
2021/12/31 01:15:34;;;;;;;8.10;0.77;;;;;;;15.56;82.52;101040.72;7386706;19;20018;-71
2021/12/31 01:20:29;;;;;;;4.88;0.57;;;;;;;15.56;82.70;101048.69;7392462;19;20046;-67
2021/12/31 01:22:56;;;;;;;3.38;0.30;;;;;;;15.58;82.81;101045.88;7395089;19;20038;-66
2021/12/31 01:25:23;;;;;;;4.07;0.45;;;;;;;15.59;82.65;101045.69;7394638;19;20010;-66
2021/12/31 01:27:51;;;;;;;3.85;0.30;;;;;;;15.60;82.40;101054.44;7395272;19;20002;-67
2021/12/31 01:30:19;;;;;;;6.78;0.50;;;;;;;15.58;82.75;101051.16;7394305;19;20050;-66
2021/12/31 01:32:49;;;;;;;6.43;0.30;;;;;;;15.56;82.68;101048.69;7392054;19;20082;-66
2021/12/31 01:35:17;;;;;;;3.80;0.38;;;;;;;15.59;82.61;101052.81;7389768;19;20692;-66
2021/12/31 01:37:44;;;;;;;6.35;0.52;;;;;;;15.55;82.33;101056.81;7390857;19;20019;-66
2021/12/31 01:40:12;;;;;;;3.78;0.50;;;;;;;15.55;82.79;101057.63;7393615;19;20123;-67
2021/12/31 01:42:39;;;;;;;3.75;0.60;;;;;;;15.52;82.69;101063.31;7393337;19;20685;-66
2021/12/31 01:45:13;;;;;;;4.90;0.43;;;;;;;15.51;82.58;101066.09;7391899;19;20007;-68
2021/12/31 01:50:11;;;;;;;4.57;0.50;;;;;;;15.51;83.55;101066.09;7393674;19;20011;-66
2021/12/31 01:52:40;;;;;;;3.65;0.38;;;;;;;15.51;83.25;101074.06;7394479;19;20015;-66
2021/12/31 01:55:10;;;;;;;5.25;0.40;;;;;;;15.52;83.23;101065.97;7392461;19;20034;-66
2021/12/31 01:57:41;;;;;;;5.32;0.60;;;;;;;15.48;82.66;101069.13;7391372;19;20035;-67
2021/12/31 02:00:12;;;;;;;6.72;0.40;;;;;;;15.48;82.60;101069.13;7394108;19;20010;-66
2021/12/31 02:02:44;;;;;;;3.85;0.35;;;;;;;15.44;83.08;101065.19;7389830;19;20015;-66
2021/12/31 02:05:12;;;;;;;5.40;0.40;;;;;;;15.45;83.18;101069.47;7393840;19;20010;-66
2021/12/31 02:07:40;;;;;;;6.80;0.40;;;;;;;15.44;83.24;101062.53;7392947;19;20007;-67
2021/12/31 02:10:09;;;;;;;9.75;2.28;;;;;;;15.48;84.75;101063.81;7393267;19;20015;-66
2021/12/31 02:12:44;;;;;;;3.83;0.40;;;;;;;15.51;84.57;101059.00;7390470;19;20028;-66
2021/12/31 02:15:12;;;;;;;5.18;0.38;;;;;;;15.52;83.68;101057.19;7391580;19;20416;-66
2021/12/31 02:17:39;;;;;;;3.90;0.30;;;;;;;15.46;83.06;101053.38;7389994;19;20478;-66
2021/12/31 02:20:08;;;;;;;3.67;0.30;;;;;;;15.44;83.16;101055.38;7390587;19;20038;-66
2021/12/31 02:22:39;;;;;;;8.80;1.08;;;;;;;15.43;83.33;101044.97;7391032;19;20003;-67
2021/12/31 02:25:07;;;;;;;3.10;0.50;;;;;;;15.40;83.12;101030.22;7392608;19;20041;-66
2021/12/31 02:27:38;;;;;;;4.30;0.43;;;;;;;15.41;83.39;101027.41;7391837;19;20122;-67
2021/12/31 02:30:07;;;;;;;6.22;0.65;;;;;;;15.41;83.14;101038.00;7392167;19;20085;-68
2021/12/31 02:32:35;;;;;;;7.32;0.70;;;;;;;15.39;83.37;101034.69;7391483;19;20078;-67
2021/12/31 02:35:03;;;;;;;8.00;0.40;;;;;;;15.35;83.24;101022.81;7390390;19;20086;-66
2021/12/31 02:37:32;;;;;;;6.70;0.52;;;;;;;15.35;83.30;101014.84;7391188;19;20042;-67
2021/12/31 02:40:03;;;;;;;6.93;0.45;;;;;;;15.38;83.59;101011.88;7391322;19;20015;-66
2021/12/31 02:42:30;;;;;;;4.70;0.60;;;;;;;15.37;83.67;101012.88;7392972;19;20011;-67
2021/12/31 02:44:58;;;;;;;4.97;0.60;;;;;;;15.40;83.47;101012.50;7389299;19;20080;-66
2021/12/31 02:47:26;;;;;;;4.10;0.50;;;;;;;15.38;83.25;100998.59;7392631;19;20011;-67
2021/12/31 02:50:02;;;;;;;4.97;1.05;;;;;;;15.34;83.08;100988.50;7389571;19;20120;-66
2021/12/31 02:52:29;;;;;;;5.88;0.70;;;;;;;15.37;83.15;100994.31;7389431;19;20372;-67
2021/12/31 02:54:59;;;;;;;5.68;0.50;;;;;;;15.38;83.70;100998.59;7389204;19;20007;-66
2021/12/31 02:57:26;;;;;;;5.40;0.50;;;;;;;15.37;83.29;100989.00;7393579;19;20460;-67
2021/12/31 02:59:54;;;;;;;4.15;0.40;;;;;;;15.38;83.29;100980.03;7387194;19;20459;-67
2021/12/31 03:02:24;;;;;;;6.45;1.58;;;;;;;15.38;83.33;100990.66;7391598;19;20393;-66
2021/12/31 03:04:53;;;;;;;6.55;0.90;;;;;;;15.36;83.80;100997.13;7394222;19;20014;-66
2021/12/31 03:07:22;;;;;;;8.32;0.52;;;;;;;15.36;83.43;100999.78;7391264;19;20013;-70
2021/12/31 03:09:51;;;;;;;4.32;0.50;;;;;;;15.37;83.45;100990.81;7388617;19;20007;-67
2021/12/31 03:12:20;;;;;;;7.03;0.80;;;;;;;15.32;83.48;100979.94;7394274;19;20010;-69
2021/12/31 03:14:49;;;;;;;3.25;0.50;;;;;;;15.34;83.61;100985.84;7388942;19;20014;-66
2021/12/31 03:17:18;;;;;;;4.82;1.05;;;;;;;15.35;83.68;100990.16;7390459;19;20359;-67
2021/12/31 03:19:46;;;;;;;3.50;0.60;;;;;;;15.34;83.77;100988.50;7388718;19;20029;-66
2021/12/31 03:22:16;;;;;;;11.82;1.27;;;;;;;15.35;84.23;100995.47;7386339;19;20487;-66
2021/12/31 03:24:46;;;;;;;10.50;0.60;;;;;;;15.37;84.43;100998.78;7390010;19;20357;-65
2021/12/31 03:27:16;;;;;;;4.43;0.63;;;;;;;15.40;83.90;100987.78;7391074;19;20373;-66
2021/12/31 03:29:44;;;;;;;6.63;0.68;;;;;;;15.35;83.38;100971.59;7392464;19;20337;-65
2021/12/31 03:32:12;;;;;;;9.55;0.90;;;;;;;15.35;83.37;100988.34;7390114;19;20054;-66
2021/12/31 03:34:39;;;;;;;7.45;0.85;;;;;;;15.31;83.77;100980.94;7389648;19;20782;-66
2021/12/31 03:37:07;;;;;;;3.75;0.50;;;;;;;15.29;83.65;100961.72;7392094;19;20006;-66
2021/12/31 03:39:34;;;;;;;6.72;0.47;;;;;;;15.36;84.67;100971.44;7386357;19;20011;-67
2021/12/31 03:42:01;;;;;;;2.85;0.50;;;;;;;15.40;84.25;100953.31;7386957;19;20010;-67
2021/12/31 03:44:29;;;;;;;6.80;0.70;;;;;;;15.38;84.10;100952.69;7390242;19;20007;-66
2021/12/31 03:46:56;;;;;;;7.30;0.75;;;;;;;15.41;83.87;100950.50;7390035;19;20759;-66
2021/12/31 03:49:23;;;;;;;2.65;0.40;;;;;;;15.42;83.40;100953.97;7389518;19;20017;-65
2021/12/31 03:51:51;;;;;;;6.88;0.80;;;;;;;15.39;83.61;100952.50;7393553;19;20401;-66
2021/12/31 03:54:18;;;;;;;3.33;0.40;;;;;;;15.40;84.64;100940.06;7392539;19;20031;-66
2021/12/31 03:56:47;;;;;;;4.75;0.80;;;;;;;15.35;83.96;100937.97;7389143;19;20007;-67
2021/12/31 03:59:15;;;;;;;4.32;0.40;;;;;;;15.34;84.28;100951.38;7388414;19;20014;-66
2021/12/31 04:01:42;;;;;;;5.50;0.70;;;;;;;15.30;84.02;100937.69;7387760;19;20038;-67
2021/12/31 04:04:10;;;;;;;9.10;1.10;;;;;;;15.31;84.30;100941.97;7387556;19;20084;-68
2021/12/31 04:06:38;;;;;;;4.53;0.52;;;;;;;15.31;84.62;100925.25;7387693;19;20141;-67
2021/12/31 04:09:05;;;;;;;6.97;0.90;;;;;;;15.33;84.56;100926.72;7388769;19;20010;-65
2021/12/31 04:11:33;;;;;;;8.20;0.80;;;;;;;15.33;84.50;100947.94;7391149;19;20498;-67
2021/12/31 04:14:01;;;;;;;4.80;0.55;;;;;;;15.34;84.84;100960.16;7386674;19;20035;-67
2021/12/31 04:16:30;;;;;;;9.57;1.02;;;;;;;15.32;84.69;100951.59;7388299;19;20044;-71
2021/12/31 04:18:58;;;;;;;9.55;1.23;;;;;;;15.34;84.99;100917.75;7384653;19;20011;-66
2021/12/31 04:21:27;;;;;;;5.20;0.70;;;;;;;15.34;84.64;100917.75;7388371;19;20014;-67
2021/12/31 04:26:24;;;;;;;6.63;0.70;;;;;;;15.36;85.63;100899.00;7387831;19;20015;-67
2021/12/31 04:28:52;;;;;;;7.90;0.70;;;;;;;15.36;85.12;100897.19;7386461;19;20650;-67
2021/12/31 04:31:19;;;;;;;3.13;0.82;;;;;;;15.34;84.87;100896.53;7387191;19;20019;-67
2021/12/31 04:33:46;;;;;;;9.05;0.85;;;;;;;15.39;84.69;100898.63;7385478;19;20021;-66
2021/12/31 04:36:14;;;;;;;4.35;0.73;;;;;;;15.41;85.40;100892.16;7392167;19;20416;-65
2021/12/31 04:38:41;;;;;;;6.32;0.80;;;;;;;15.37;84.95;100900.66;7386156;19;20014;-67
2021/12/31 04:41:09;;;;;;;8.02;0.60;;;;;;;15.38;85.11;100911.09;7386717;19;20040;-66
2021/12/31 04:43:36;;;;;;;10.45;0.93;;;;;;;15.35;84.49;100922.06;7390272;19;20046;-66
2021/12/31 04:46:03;;;;;;;9.73;1.20;;;;;;;15.36;85.49;100928.19;7389338;19;20503;-68
2021/12/31 04:48:31;;;;;;;7.65;0.60;;;;;;;15.35;85.09;100923.88;7385805;19;20018;-66
2021/12/31 04:50:58;;;;;;;6.75;0.65;;;;;;;15.34;85.14;100895.72;7394363;19;20007;-66
2021/12/31 04:53:26;;;;;;;7.65;0.70;;;;;;;15.36;85.15;100899.84;7396686;19;20022;-67
2021/12/31 04:55:53;;;;;;;9.15;0.85;;;;;;;15.32;85.07;100911.81;7392089;19;20014;-66
2021/12/31 04:58:20;;;;;;;11.10;0.80;;;;;;;15.36;85.14;100917.56;7398644;19;20034;-66
2021/12/31 05:00:48;;;;;;;8.88;1.10;;;;;;;15.37;85.11;100908.63;7393554;19;20007;-66
2021/12/31 05:03:15;;;;;;;8.85;0.80;;;;;;;15.37;84.91;100890.06;7393158;19;20006;-66
2021/12/31 05:05:42;;;;;;;10.13;1.30;;;;;;;15.35;84.83;100892.88;7392944;19;20018;-67
2021/12/31 05:08:10;;;;;;;5.93;0.88;;;;;;;15.36;85.16;100883.09;7395637;19;20629;-67
2021/12/31 05:10:37;;;;;;;7.28;0.90;;;;;;;15.36;85.13;100897.19;7395848;19;20475;-66
2021/12/31 05:13:05;;;;;;;10.07;1.63;;;;;;;15.34;85.33;100907.13;7393047;19;20011;-66
2021/12/31 05:15:36;;;;;;;10.27;1.00;;;;;;;15.28;85.23;100901.75;7391091;19;20036;-67
2021/12/31 05:18:03;;;;;;;10.60;0.93;;;;;;;15.28;85.42;100910.53;7397145;19;20031;-65
2021/12/31 05:20:31;;;;;;;9.88;1.25;;;;;;;15.25;85.57;100918.84;7391226;19;20046;-67
2021/12/31 05:23:00;;;;;;;8.52;0.82;;;;;;;15.25;85.73;100910.06;7394113;19;20032;-66
2021/12/31 05:25:28;;;;;;;6.50;0.60;;;;;;;15.25;85.71;100918.00;7393272;19;20011;-66
2021/12/31 05:27:55;;;;;;;5.15;0.63;;;;;;;15.28;86.19;100922.97;7394803;19;20050;-67
2021/12/31 05:30:22;;;;;;;5.50;0.70;;;;;;;15.26;85.79;100917.84;7394241;19;20017;-67
2021/12/31 05:32:50;;;;;;;11.38;1.02;;;;;;;15.23;85.85;100922.69;7392160;19;20014;-67
2021/12/31 05:35:17;;;;;;;7.47;0.93;;;;;;;15.25;85.77;100907.41;7393778;19;20019;-66
2021/12/31 05:37:44;;;;;;;9.50;1.15;;;;;;;15.28;86.35;100909.72;7393050;19;20011;-67
2021/12/31 05:40:11;;;;;;;11.30;1.15;;;;;;;15.26;85.98;100911.72;7392169;19;20038;-67
2021/12/31 05:42:39;;;;;;;6.63;0.90;;;;;;;15.26;86.01;100903.75;7393874;19;20336;-66
2021/12/31 05:45:09;;;;;;;8.80;1.05;;;;;;;15.25;85.94;100910.88;7392328;19;20030;-66
2021/12/31 05:47:38;;;;;;;6.25;0.90;;;;;;;15.25;85.98;100923.31;7394728;19;20021;-67
2021/12/31 05:50:17;;;;;;;6.40;1.27;;;;;;;15.26;86.45;100919.66;7390452;19;20011;-67
2021/12/31 05:52:46;;;;;;;7.75;0.93;;;;;;;15.25;85.88;100918.84;7393280;19;20332;-68
2021/12/31 05:55:14;;;;;;;7.63;1.20;;;;;;;15.24;85.96;100927.78;7391448;19;20404;-68
2021/12/31 05:57:41;;;;;;;8.77;0.80;;;;;;;15.25;86.19;100904.75;7391814;19;20006;-67
2021/12/31 06:00:09;;;;;;;6.55;0.68;;;;;;;15.30;86.52;100897.09;7389431;19;20022;-66
2021/12/31 06:02:36;;;;;;;12.55;1.42;;;;;;;15.34;86.23;100893.88;7391198;19;20174;-66
2021/12/31 06:05:04;;;;;;;9.32;1.00;;;;;;;15.35;85.73;100894.72;7391872;19;20010;-67
2021/12/31 06:07:31;;;;;;;8.85;0.95;;;;;;;15.35;85.80;100821.28;7393787;19;20044;-66
2021/12/31 06:09:58;;;;;;;9.85;1.25;;;;;;;15.43;86.79;100869.94;7393221;19;20010;-66
2021/12/31 06:12:27;;;;;;;12.13;0.90;;;;;;;15.44;86.11;100887.50;7395314;19;20015;-68
2021/12/31 06:14:58;;;;;;;7.93;1.60;;;;;;;15.47;86.36;100895.09;7394401;19;20548;-67
2021/12/31 06:17:27;;;;;;;9.57;0.73;;;;;;;15.45;86.59;100900.56;7391830;19;20122;-66
2021/12/31 06:19:58;;;;;;;9.88;1.20;;;;;;;15.48;87.48;100880.84;7389477;19;20019;-67
2021/12/31 06:22:25;;;;;;;9.93;0.77;;;;;;;15.49;87.79;100869.22;7392311;19;20044;-66
2021/12/31 06:24:53;;;;;;;9.82;1.23;;;;;;;15.49;87.35;100859.41;7389231;19;20010;-67
2021/12/31 06:27:24;;;;;;;4.22;0.68;;;;;;;15.46;87.27;100864.25;7390477;19;20748;-68
2021/12/31 06:29:51;;;;;;;5.63;0.77;;;;;;;15.41;87.43;100916.03;7396994;19;20526;-66
2021/12/31 06:32:18;;;;;;;10.88;0.80;;;;;;;15.35;87.56;100903.50;7393450;19;20010;-66
2021/12/31 06:34:46;;;;;;;7.35;0.70;;;;;;;15.31;87.69;100918.13;7389458;19;20019;-67
2021/12/31 06:37:13;;;;;;;8.68;1.20;;;;;;;15.27;87.76;100919.50;7392193;19;20018;-67
2021/12/31 06:39:43;;;;;;;4.82;1.17;;;;;;;15.28;88.32;100909.72;7392082;19;20808;-67
2021/12/31 06:42:10;;;;;;;8.02;0.70;;;;;;;15.31;88.78;100912.81;7390907;19;20015;-66
2021/12/31 06:44:38;;;;;;;4.93;0.88;;;;;;;15.32;88.41;100911.81;7390646;19;20014;-66
2021/12/31 06:47:06;;;;;;;6.97;0.90;;;;;;;15.34;88.32;100907.13;7391333;19;20030;-68
2021/12/31 06:49:34;;;;;;;8.88;2.28;;;;;;;15.37;88.45;100903.31;7389892;19;20495;-66
2021/12/31 06:52:02;;;;;;;9.23;0.90;;;;;;;15.39;88.84;100880.06;7394871;19;20013;-66
2021/12/31 06:54:29;;;;;;;6.55;0.95;;;;;;;15.37;88.50;100879.47;7393838;19;20495;-66
2021/12/31 06:56:57;;;;;;;8.27;0.70;;;;;;;15.36;87.94;100896.38;7391273;19;20035;-67
2021/12/31 06:59:25;;;;;;;7.03;0.90;;;;;;;15.31;87.98;100926.06;7391775;19;20021;-66
2021/12/31 07:01:53;;;;;;;8.57;0.93;;;;;;;15.29;88.50;100937.84;7391614;19;20015;-67
2021/12/31 07:04:21;;;;;;;8.10;0.80;;;;;;;15.23;88.57;100939.44;7389292;19;20007;-66
2021/12/31 07:06:49;;;;;;;9.82;1.63;;;;;;;15.24;88.61;100948.16;7388165;19;20009;-66
2021/12/31 07:09:18;;;;;;;8.60;1.02;;;;;;;15.24;88.75;100972.88;7393715;19;20011;-66
2021/12/31 07:11:45;;;;;;;9.48;3.28;;;;;;;15.26;89.17;100992.06;7393698;19;20038;-67
2021/12/31 07:14:12;;;;;;;7.20;1.10;;;;;;;15.25;89.27;100993.06;7389293;19;20104;-66
2021/12/31 07:16:40;;;;;;;10.20;1.63;;;;;;;15.26;88.78;101010.63;7390500;19;20456;-67
2021/12/31 07:19:07;;;;;;;7.25;1.33;;;;;;;15.27;88.67;101014.13;7388406;19;20003;-66
2021/12/31 07:21:34;;;;;;;11.38;1.67;;;;;;;15.29;88.83;101014.75;7390304;19;20030;-67
2021/12/31 07:24:02;;;;;;;8.68;1.25;;;;;;;15.29;89.40;101047.38;7392633;19;20012;-67
2021/12/31 07:26:29;;;;;;;10.23;1.42;;;;;;;15.31;88.94;101018.06;7388667;19;20014;-67
2021/12/31 07:28:57;;;;;;;10.90;0.77;;;;;;;15.32;88.82;101015.22;7393433;19;20386;-68
2021/12/31 07:31:24;;;;;;;8.63;1.10;;;;;;;15.33;88.58;101024.00;7388284;19;20010;-66
2021/12/31 07:33:52;;;;;;;10.82;1.20;;;;;;;15.31;88.62;101031.31;7388654;19;20077;-67
2021/12/31 07:36:19;;;;;;;6.15;0.80;;;;;;;15.33;88.98;101027.50;7386925;19;20011;-66
2021/12/31 07:38:55;;;;;;;7.50;1.20;;;;;;;15.33;89.09;101011.59;7388783;19;20020;-66
2021/12/31 07:41:22;;;;;;;10.98;1.02;;;;;;;15.30;89.70;100989.88;7388758;19;20011;-66
2021/12/31 07:43:50;;;;;;;6.78;1.08;;;;;;;15.29;90.56;100986.41;7393725;19;20007;-67
2021/12/31 07:46:18;;;;;;;8.65;1.27;;;;;;;15.22;90.30;100992.63;7387332;19;20030;-66
2021/12/31 07:48:45;;;;;;;10.68;1.30;;;;;;;15.18;90.92;100992.16;7387476;19;20728;-66
2021/12/31 07:51:13;;;;;;;10.82;1.48;;;;;;;15.18;90.92;100992.16;7388208;19;20659;-66
2021/12/31 07:53:40;;;;;;;11.98;2.35;;;;;;;15.19;91.55;101001.72;7389749;19;20014;-66
2021/12/31 07:56:08;;;;;;;10.40;1.40;;;;;;;15.14;91.86;100988.19;7389496;19;20041;-67
2021/12/31 07:58:35;;;;;;;13.43;1.80;;;;;;;15.11;91.68;100998.34;7391745;19;20007;-67
2021/12/31 08:01:03;;;;;;;8.68;1.33;;;;;;;15.11;91.69;100999.16;7386442;19;20036;-67
2021/12/31 08:03:31;;;;;;;9.40;1.35;;;;;;;15.09;91.98;101003.81;7388939;19;20007;-66
2021/12/31 08:05:58;;;;;;;8.73;1.65;;;;;;;15.08;92.51;100994.22;7387106;19;20507;-67
2021/12/31 08:08:26;;;;;;;9.85;1.27;;;;;;;15.07;92.35;100974.03;7387283;19;20015;-66
2021/12/31 08:10:53;;;;;;;9.55;1.00;;;;;;;15.02;92.14;100976.38;7387599;19;20444;-66
2021/12/31 08:13:23;;;;;;;10.02;2.20;;;;;;;14.98;92.15;100975.91;7390699;19;20383;-66
2021/12/31 08:15:51;;;;;;;7.65;1.15;;;;;;;14.97;92.59;101000.78;7389159;19;20042;-66
2021/12/31 08:18:18;;;;;;;7.72;1.33;;;;;;;14.96;92.74;101022.97;7387434;19;20070;-68
2021/12/31 08:20:46;;;;;;;9.02;1.27;;;;;;;14.97;92.71;101034.38;7389506;19;20059;-66
2021/12/31 08:23:14;;;;;;;6.45;1.23;;;;;;;14.93;92.60;101047.16;7389855;19;20384;-66
2021/12/31 08:25:42;;;;;;;7.13;2.15;;;;;;;14.92;93.11;101053.47;7385736;19;20010;-67
2021/12/31 08:28:10;;;;;;;9.85;1.05;;;;;;;14.92;92.80;101057.94;7387112;19;20011;-66
2021/12/31 08:30:39;;;;;;;8.23;1.00;;;;;;;14.90;92.78;101063.41;7385187;19;20006;-66
2021/12/31 08:33:06;;;;;;;7.53;0.70;;;;;;;14.87;92.90;101063.78;7385947;19;20006;-66
2021/12/31 08:35:38;;;;;;;5.60;1.00;;;;;;;14.86;93.41;101063.94;7384346;19;20007;-66
2021/12/31 08:38:05;;;;;;;5.90;0.98;;;;;;;14.86;93.32;101077.19;7388829;19;20038;-66
2021/12/31 08:40:32;;;;;;;10.27;1.27;;;;;;;14.84;93.20;101084.47;7388362;19;20760;-66
2021/12/31 08:43:00;;;;;;;5.35;0.70;;;;;;;14.85;93.40;101067.56;7388141;19;20003;-67
2021/12/31 08:45:32;;;;;;;6.00;0.77;;;;;;;14.86;93.44;101077.19;7388881;19;20040;-66
2021/12/31 08:48:01;;;;;;;7.65;1.17;;;;;;;14.82;93.64;101068.78;7386955;19;20018;-67
2021/12/31 08:50:28;;;;;;;9.45;0.90;;;;;;;14.83;93.69;101059.78;7391551;19;20099;-66
2021/12/31 08:52:55;;;;;;;7.45;0.88;;;;;;;14.88;93.97;101062.75;7389961;19;20527;-68
2021/12/31 08:55:24;;;;;;;8.27;1.05;;;;;;;14.90;93.92;101062.56;7385542;19;20025;-67
2021/12/31 08:57:52;;;;;;;9.13;0.90;;;;;;;14.92;93.91;101052.63;7387460;19;20441;-68
2021/12/31 09:00:19;;;;;;;6.90;0.88;;;;;;;14.94;93.43;101051.44;7385839;19;20318;-66
2021/12/31 09:02:48;;;;;;;7.13;1.20;;;;;;;14.93;93.72;101055.09;7384306;19;20047;-66
2021/12/31 09:05:22;;;;;;;18.40;4.03;;;;;;;14.92;93.69;101057.94;7384792;19;20406;-66
2021/12/31 09:07:51;;;;;;;5.40;0.80;;;;;;;14.95;93.97;101068.19;7386167;19;20015;-66
2021/12/31 09:10:20;;;;;;;4.40;1.02;;;;;;;14.95;93.49;101071.66;7388899;19;20118;-67
2021/12/31 09:12:49;;;;;;;7.28;0.68;;;;;;;14.97;93.58;101077.63;7388357;19;20010;-67
2021/12/31 09:15:16;;;;;;;6.07;1.13;;;;;;;14.99;92.93;101085.38;7389925;19;20030;-66
2021/12/31 09:17:44;;;;;;;4.90;0.55;;;;;;;14.98;93.05;101087.19;7384959;19;20010;-66
2021/12/31 09:20:11;;;;;;;4.68;0.40;;;;;;;14.99;93.34;101094.16;7385281;19;20518;-67
2021/12/31 09:22:39;;;;;;;2.35;0.30;;;;;;;14.98;92.78;101089.84;7384802;19;20130;-67
2021/12/31 09:25:07;;;;;;;3.67;0.60;;;;;;;15.01;92.74;101106.41;7387748;19;20038;-67
2021/12/31 09:27:34;;;;;;;4.82;0.45;;;;;;;15.01;92.67;101111.72;7389815;19;20015;-66
2021/12/31 09:30:03;;;;;;;4.00;0.30;;;;;;;15.03;93.11;101112.38;7390019;19;20621;-69
2021/12/31 09:32:30;;;;;;;3.38;0.40;;;;;;;15.07;92.72;101119.78;7388210;19;20039;-67
2021/12/31 09:34:58;;;;;;;2.15;0.32;;;;;;;15.04;92.31;101111.34;7388645;19;20356;-67
2021/12/31 09:37:26;;;;;;;2.22;0.40;;;;;;;15.05;92.63;101129.72;7392380;19;20018;-67
2021/12/31 09:39:53;;;;;;;1.20;0.30;;;;;;;15.08;92.56;101137.34;7396731;19;20010;-68
2021/12/31 09:42:21;;;;;;;2.75;0.30;;;;;;;15.08;92.37;101140.00;7397227;19;20027;-67
2021/12/31 09:44:48;;;;;;;2.63;0.25;;;;;;;15.07;92.10;101148.94;7396492;19;20011;-67
2021/12/31 09:47:17;;;;;;;1.05;0.30;;;;;;;15.05;92.15;101140.34;7395207;19;20022;-66
2021/12/31 09:49:47;;;;;;;3.47;0.50;;;;;;;15.09;92.69;101143.44;7399658;19;20019;-67
2021/12/31 09:52:16;;;;;;;2.50;0.40;;;;;;;15.12;92.68;101162.50;7394759;19;20022;-67
2021/12/31 09:54:46;;;;;;;4.32;0.47;;;;;;;15.12;92.64;101161.69;7394663;19;20428;-67
2021/12/31 09:57:17;;;;;;;2.10;0.38;;;;;;;15.13;92.46;101171.28;7395350;19;20006;-67
2021/12/31 09:59:46;;;;;;;2.05;0.40;;;;;;;15.14;92.37;101183.50;7395612;19;20007;-67
2021/12/31 10:02:15;;;;;;;2.60;0.30;;;;;;;15.17;92.36;101181.38;7394351;19;20015;-67
2021/12/31 10:04:49;;;;;;;2.65;0.40;;;;;;;15.19;92.15;101173.22;7394804;19;20018;-67
2021/12/31 10:07:20;;;;;;;4.07;1.00;;;;;;;15.20;92.23;101164.28;7394339;19;20017;-67
2021/12/31 10:10:04;;;;;;;1.05;0.30;;;;;;;15.26;92.47;101174.19;7395459;19;20011;-66
2021/12/31 10:12:38;;;;;;;1.73;0.40;;;;;;;15.27;92.21;101184.63;7395337;19;20011;-68
2021/12/31 10:15:08;;;;;;;2.35;0.40;;;;;;;15.24;92.13;101178.81;7394914;19;20345;-67
2021/12/31 10:17:36;;;;;;;1.98;0.73;;;;;;;15.24;92.19;101181.47;7393977;19;20018;-67
2021/12/31 10:20:07;;;;;;;1.77;0.50;;;;;;;15.26;92.47;101198.03;7394419;19;20014;-66
2021/12/31 10:22:35;;;;;;;2.17;0.60;;;;;;;15.27;92.49;101205.84;7393708;19;20011;-67
2021/12/31 10:25:16;;;;;;;3.70;0.60;;;;;;;15.30;92.28;101202.81;7393669;19;20479;-66
2021/12/31 10:27:44;;;;;;;3.90;0.50;;;;;;;15.24;92.00;101200.84;7392703;19;20413;-67
2021/12/31 10:30:11;;;;;;;2.25;0.50;;;;;;;15.25;92.10;101207.00;7394170;19;20006;-68
2021/12/31 10:32:40;;;;;;;3.92;0.65;;;;;;;15.26;92.24;101206.00;7393504;19;20010;-66
2021/12/31 10:35:09;;;;;;;2.97;0.50;;;;;;;15.25;92.10;101197.22;7390914;19;20013;-66
2021/12/31 10:37:42;;;;;;;3.35;0.68;;;;;;;15.27;91.93;101212.97;7394839;19;20020;-67
2021/12/31 10:40:11;;;;;;;2.28;0.80;;;;;;;15.24;92.10;101215.94;7395813;19;20750;-67
2021/12/31 10:42:41;;;;;;;2.88;0.50;;;;;;;15.22;91.91;101208.19;7392777;19;20456;-67
2021/12/31 10:45:09;;;;;;;1.50;0.45;;;;;;;15.24;92.11;101214.13;7393886;19;20467;-66
2021/12/31 10:47:42;;;;;;;5.82;0.75;;;;;;;15.24;91.89;101200.03;7394509;19;20009;-66
2021/12/31 10:50:12;;;;;;;5.90;1.40;;;;;;;15.27;92.67;101197.06;7395429;19;20014;-67
2021/12/31 10:52:53;;;;;;;5.15;0.77;;;;;;;15.29;92.52;101193.22;7394492;19;20010;-67
2021/12/31 10:55:27;;;;;;;4.07;0.70;;;;;;;15.31;92.11;101183.28;7393486;19;20026;-68
2021/12/31 10:57:57;;;;;;;2.05;0.63;;;;;;;15.31;91.84;101191.22;7394262;19;20055;-67
2021/12/31 11:00:33;;;;;;;4.72;0.70;;;;;;;15.34;91.91;101190.03;7392484;19;20013;-67
2021/12/31 11:03:02;;;;;;;4.10;0.73;;;;;;;15.35;91.68;101178.44;7394408;19;20014;-66
2021/12/31 11:05:30;;;;;;;3.00;0.82;;;;;;;15.37;91.44;101164.00;7392596;19;20468;-67
2021/12/31 11:08:00;;;;;;;5.07;0.55;;;;;;;15.41;91.17;101162.66;7390546;19;20334;-67
2021/12/31 11:10:34;;;;;;;7.82;2.72;;;;;;;15.44;91.24;101165.97;7391762;19;20090;-66
2021/12/31 11:13:11;;;;;;;3.13;0.90;;;;;;;15.51;91.69;101169.53;7388901;19;20006;-67
2021/12/31 11:15:40;;;;;;;3.55;0.65;;;;;;;15.51;90.44;101170.41;7389041;19;20509;-66
2021/12/31 11:18:08;;;;;;;3.42;0.73;;;;;;;15.51;90.40;101170.41;7393194;19;20021;-66
2021/12/31 11:20:36;;;;;;;6.68;1.40;;;;;;;15.52;90.18;101156.16;7392966;19;20018;-67
2021/12/31 11:23:04;;;;;;;5.13;0.65;;;;;;;15.57;90.62;101153.78;7394020;19;20385;-66
2021/12/31 11:25:51;;;;;;;7.13;1.02;;;;;;;15.58;90.07;101160.75;7393168;19;20031;-66
2021/12/31 11:28:23;;;;;;;5.28;0.70;;;;;;;15.60;89.86;101166.69;7393703;19;20397;-67
2021/12/31 11:30:51;;;;;;;3.28;0.50;;;;;;;15.62;89.89;101163.88;7394195;19;20006;-66
2021/12/31 11:33:26;;;;;;;5.45;0.93;;;;;;;15.64;89.99;101159.22;7393304;19;20432;-66
2021/12/31 11:35:58;;;;;;;2.83;0.50;;;;;;;15.65;89.66;101161.69;7392968;19;20014;-66
2021/12/31 11:38:29;;;;;;;5.60;0.50;;;;;;;15.69;89.54;101165.66;7393467;19;20014;-65